Impacts METAR Board
IDs:

KDTW - Detroit Metro/Wayne, MI, US

Updated at: 2000 UTC 20 Oct 2018
Potential Impact None Slight Moderate High
Time 20/08Z 20/09Z 20/10Z 20/11Z 20/12Z 20/13Z 20/14Z 20/15Z 20/16Z 20/17Z 20/18Z 20/19Z 20/20Z
Temp49 48 48 47 47 50 52 53 56 59 51 44 48
Dewpt45 44 44 44 44 45 46 44 42 40 36 39 40
Altim29.74 29.74 29.75 29.75 29.75 29.75 29.74 29.73 29.70 29.67 29.65 29.68 29.69
VIS9 6 6 6 4 6 8 10 10 10 8 7 10
CIG-- -- -- -- -- 75 -- 80 35 60 60 55 80
CoverFEWCLRCLRFEWFEWBKNSCTBKNBKNBKNOVCBKNBKN
FltCatVFRVFRVFRVFRMVFRVFRVFRVFRVFRVFRVFRVFRVFR
WX--BRBRBRBRHZ---------RA----
WDir230220230230220220240250250270270300260
WSpd9 9 9 10 9 11 9 9 11 14 11 13 6
WGst-- -- -- -- -- -- -- -- -- 21 -- 21 --
Raw hourly METARs
KDTW 200753Z 23009KT 9SM FEW070 09/07 A2974 RMK AO2 SLP072 T00940072
KDTW 200853Z 22009KT 6SM BR CLR 09/07 A2974 RMK AO2 SLP073 T00890067 51004
KDTW 200953Z 23009KT 6SM BR CLR 09/07 A2975 RMK AO2 SLP077 T00890067
KDTW 201053Z 23010KT 6SM BR FEW020 08/07 A2975 RMK AO2 SLP077 T00830067
KDTW 201153Z 22009KT 4SM BR FEW020 FEW100 08/07 A2975 RMK AO2 SLP076 70002 T00830067 10106 20083 50002
KDTW 201253Z 22011KT 6SM HZ FEW020 BKN075 10/07 A2975 RMK AO2 SLP076 T01000072
KDTW 201353Z 24009KT 8SM SCT075 11/08 A2974 RMK AO2 SLP074 T01110078
KDTW 201453Z 25009KT 10SM FEW007 BKN080 12/07 A2973 RMK AO2 SLP070 T01170067 58006
KDTW 201553Z 25011KT 10SM FEW025 BKN035 BKN080 13/06 A2970 RMK AO2 SLP059 T01330056
KDTW 201653Z 27014G21KT 10SM SCT040 BKN060 BKN090 15/04 A2967 RMK AO2 SLP048 T01500044
KDTW 201800Z 27011KT 8SM -RA SCT045 BKN060 OVC090 11/02 A2965 RMK AO2 WSHFT 1740 LTG DSNT N AND W OCNL LTGIC DSNT W CB DSNT W MOV E T01060022 PNO $
KDTW 201853Z 30013G21KT 7SM FEW020 SCT035 BKN055 07/04 A2968 RMK AO2 PK WND 30041/1831 WSHFT 1740 LTG DSNT E-SW RAE02B31E50 TSE22B25E50 SLP053 OCNL LTGICCG DSNT E-SE TS MOV E CB DSNT E-SE MOV E P0005 T00670039 $
KDTW 201953Z 26006KT 10SM FEW020 SCT055 BKN080 09/04 A2969 RMK AO2 SLP055 T00890044 $



Page loaded:  20:58 UTC  |   01:58 PM Pacific  |   02:58 PM Mountain  |   03:58 PM Central  |   04:58 PM Eastern

 

ADVISORIES

FORECASTS

FORECASTS

OBSERVATIONS

USER TOOLS

ABOUT US